createdAt,value
2018-12-07T00:00:16.666Z,64.85
2018-12-07T00:02:43.028Z,64.39
2018-12-07T00:05:09.001Z,63.06
2018-12-07T00:07:35.060Z,63.91
2018-12-07T00:10:01.056Z,63.66
2018-12-07T00:12:27.052Z,63.39
2018-12-07T00:14:53.018Z,63.58
2018-12-07T00:17:19.098Z,64.69
2018-12-07T00:19:48.130Z,62.91
2018-12-07T00:22:13.214Z,64.16
2018-12-07T00:24:39.288Z,64.02
2018-12-07T00:27:05.397Z,64.19
2018-12-07T00:29:31.537Z,62.87
2018-12-07T00:31:57.655Z,62.46
2018-12-07T00:34:23.860Z,64.62
2018-12-07T00:36:49.967Z,62.80
2018-12-07T00:39:16.156Z,65.16
2018-12-07T00:41:42.230Z,63.38
2018-12-07T00:44:08.206Z,64.86
2018-12-07T00:46:34.299Z,63.97
2018-12-07T00:49:00.792Z,64.82
2018-12-07T00:51:26.766Z,64.06
2018-12-07T00:53:52.776Z,65.86
2018-12-07T00:56:18.787Z,66.11
2018-12-07T00:58:45.293Z,65.49
2018-12-07T01:01:11.381Z,64.28
2018-12-07T01:03:37.519Z,64.45
2018-12-07T01:06:03.517Z,65.38
2018-12-07T01:08:29.513Z,66.22
2018-12-07T01:10:55.489Z,66.77
2018-12-07T01:13:21.566Z,67.18
2018-12-07T01:15:47.527Z,67.06
2018-12-07T01:18:13.518Z,65.75
2018-12-07T01:20:39.481Z,66.54
2018-12-07T01:23:05.493Z,65.76
2018-12-07T01:25:31.448Z,66.49
2018-12-07T01:27:57.447Z,66.02
2018-12-07T01:30:23.445Z,64.96
2018-12-07T01:32:49.439Z,66.35
2018-12-07T01:35:15.403Z,66.54
2018-12-07T01:37:41.396Z,67.16
2018-12-07T01:40:07.369Z,65.94
2018-12-07T01:42:33.363Z,67.52
2018-12-07T01:44:59.309Z,66.35
2018-12-07T01:47:25.303Z,66.64
2018-12-07T01:49:51.286Z,66.33
2018-12-07T01:52:17.289Z,65.66
2018-12-07T01:54:43.249Z,67.21
2018-12-07T01:57:09.206Z,66.62
2018-12-07T01:59:35.168Z,66.98
2018-12-07T02:02:01.176Z,66.01
2018-12-07T02:04:27.201Z,65.77
2018-12-07T02:06:53.279Z,65.63
2018-12-07T02:09:19.282Z,66.46
2018-12-07T02:11:45.298Z,66.16
2018-12-07T02:14:11.298Z,65.66
2018-12-07T02:16:37.819Z,66.00
2018-12-07T02:19:04.360Z,64.53
2018-12-07T02:21:30.426Z,63.95
2018-12-07T02:23:56.409Z,66.09
2018-12-07T02:26:22.495Z,66.97
2018-12-07T02:28:48.632Z,66.67
2018-12-07T02:31:14.696Z,66.68
2018-12-07T02:33:40.625Z,66.40
2018-12-07T02:36:06.632Z,66.56
2018-12-07T02:38:32.589Z,66.55
2018-12-07T02:40:58.526Z,67.62
2018-12-07T02:43:24.538Z,66.65
2018-12-07T02:45:50.464Z,68.22
2018-12-07T02:48:16.409Z,68.08
2018-12-07T02:50:42.505Z,67.26
2018-12-07T02:53:08.491Z,65.34
2018-12-07T02:55:34.496Z,65.26
2018-12-07T02:58:00.489Z,66.91
2018-12-07T03:00:26.421Z,68.71
2018-12-07T03:02:52.385Z,65.55
2018-12-07T03:05:18.386Z,66.84
2018-12-07T03:07:44.327Z,67.15
2018-12-07T03:10:10.320Z,67.51
2018-12-07T03:12:36.291Z,66.61
2018-12-07T03:15:03.091Z,66.53
2018-12-07T03:17:29.087Z,66.91
2018-12-07T03:19:55.064Z,64.78
2018-12-07T03:22:21.082Z,67.02
2018-12-07T03:24:47.091Z,65.94
2018-12-07T03:27:13.082Z,66.10
2018-12-07T03:29:39.083Z,65.89
2018-12-07T03:32:05.102Z,65.71
2018-12-07T03:34:31.129Z,65.24
2018-12-07T03:36:57.126Z,65.75
2018-12-07T03:39:23.187Z,64.82
2018-12-07T03:41:49.204Z,64.50
2018-12-07T03:44:15.179Z,64.90
2018-12-07T03:46:41.176Z,66.93
2018-12-07T03:49:07.659Z,65.32
2018-12-07T03:51:33.679Z,66.40
2018-12-07T03:53:59.745Z,66.83
2018-12-07T03:56:25.747Z,65.60
2018-12-07T03:58:58.707Z,66.72
2018-12-07T04:01:24.727Z,65.25
2018-12-07T04:03:50.948Z,64.87
2018-12-07T04:06:16.986Z,66.42
2018-12-07T04:08:49.968Z,66.31
2018-12-07T04:11:15.964Z,67.30
2018-12-07T04:13:41.930Z,67.72
2018-12-07T04:16:07.934Z,67.01
2018-12-07T04:18:33.901Z,65.92
2018-12-07T04:20:59.948Z,65.40
2018-12-07T04:23:25.958Z,65.81
2018-12-07T04:25:51.995Z,65.39
2018-12-07T04:28:18.074Z,65.65
2018-12-07T04:30:44.083Z,65.44
2018-12-07T04:33:10.728Z,64.28
2018-12-07T04:35:41.618Z,65.49
2018-12-07T04:38:07.781Z,65.25
2018-12-07T04:40:33.759Z,67.18
2018-12-07T04:42:59.733Z,65.38
2018-12-07T04:45:25.741Z,66.29
2018-12-07T04:47:51.731Z,64.25
2018-12-07T04:50:17.747Z,64.51
2018-12-07T04:52:43.719Z,64.74
2018-12-07T04:55:09.712Z,64.91
2018-12-07T04:57:35.790Z,65.27
2018-12-07T05:00:01.919Z,65.67
2018-12-07T05:02:27.940Z,65.43
2018-12-07T05:04:53.979Z,65.34
2018-12-07T05:07:19.954Z,64.16
2018-12-07T05:09:47.029Z,64.92
2018-12-07T05:14:45.767Z,64.14
2018-12-07T05:17:11.760Z,64.22
2018-12-07T05:19:37.780Z,64.29
2018-12-07T05:22:03.797Z,64.31
2018-12-07T05:24:29.843Z,64.18
2018-12-07T05:26:55.897Z,63.71
2018-12-07T05:29:21.822Z,62.92
2018-12-07T05:31:47.878Z,63.54
2018-12-07T05:34:13.851Z,63.86
2018-12-07T05:36:39.851Z,64.95
2018-12-07T05:39:05.829Z,64.04
2018-12-07T05:41:31.823Z,63.42
2018-12-07T05:43:57.848Z,63.51
2018-12-07T05:46:23.821Z,63.10
2018-12-07T05:48:49.849Z,63.41
2018-12-07T05:51:15.833Z,63.70
2018-12-07T05:53:41.823Z,64.44
2018-12-07T05:56:07.777Z,64.87
2018-12-07T05:58:33.767Z,63.97
2018-12-07T06:00:59.741Z,63.51
2018-12-07T06:03:25.770Z,64.00
2018-12-07T06:05:51.775Z,61.33
2018-12-07T06:08:17.734Z,62.87
2018-12-07T06:10:43.743Z,63.51
2018-12-07T06:13:09.744Z,62.15
2018-12-07T06:15:35.766Z,64.16
2018-12-07T06:18:01.735Z,62.38
2018-12-07T06:20:27.730Z,63.08
2018-12-07T06:22:53.727Z,62.55
2018-12-07T06:25:19.713Z,63.88
2018-12-07T06:27:45.667Z,63.67
2018-12-07T06:30:11.701Z,63.32
2018-12-07T06:32:37.718Z,63.36
2018-12-07T06:35:03.692Z,64.18
2018-12-07T06:37:29.680Z,63.57
2018-12-07T06:39:55.650Z,62.81
2018-12-07T06:42:21.673Z,63.66
2018-12-07T06:44:47.639Z,63.39
2018-12-07T06:47:13.621Z,62.25
2018-12-07T06:49:39.603Z,62.78
2018-12-07T06:52:05.581Z,63.01
2018-12-07T06:54:31.639Z,63.16
2018-12-07T06:56:57.659Z,62.37
2018-12-07T06:59:23.663Z,62.09
2018-12-07T07:01:49.692Z,62.78
2018-12-07T07:04:15.699Z,62.68
2018-12-07T07:06:41.679Z,61.59
2018-12-07T07:09:07.753Z,61.74
2018-12-07T07:11:34.052Z,61.17
2018-12-07T07:14:00.034Z,62.29
2018-12-07T07:16:26.004Z,61.99
2018-12-07T07:18:52.022Z,61.82
2018-12-07T07:21:18.019Z,61.74
2018-12-07T07:23:44.064Z,62.10
2018-12-07T07:26:10.028Z,62.21
2018-12-07T07:28:43.001Z,61.20
2018-12-07T07:31:08.978Z,61.67
2018-12-07T07:33:34.991Z,61.86
2018-12-07T07:36:01.100Z,63.10
2018-12-07T07:38:34.122Z,61.47
2018-12-07T07:41:00.088Z,61.54
2018-12-07T07:43:26.072Z,62.48
2018-12-07T07:45:52.044Z,61.24
2018-12-07T07:48:18.057Z,62.03
2018-12-07T07:50:44.046Z,62.35
2018-12-07T07:53:10.038Z,63.69
2018-12-07T07:55:36.084Z,62.72
2018-12-07T07:58:02.153Z,62.45
2018-12-07T08:00:28.108Z,63.27
2018-12-07T08:02:54.202Z,63.42
2018-12-07T08:05:20.190Z,61.81
2018-12-07T08:07:46.177Z,62.59
2018-12-07T08:10:12.180Z,64.03
2018-12-07T08:12:38.202Z,65.00
2018-12-07T08:15:04.253Z,65.24
2018-12-07T08:17:30.173Z,64.90
2018-12-07T08:19:56.129Z,64.47
2018-12-07T08:22:22.235Z,63.46
2018-12-07T08:24:48.208Z,62.82
2018-12-07T08:27:14.282Z,62.87
2018-12-07T08:29:40.255Z,63.77
2018-12-07T08:32:06.233Z,64.70
2018-12-07T08:34:32.170Z,65.43
2018-12-07T08:36:58.113Z,64.82
2018-12-07T08:39:24.119Z,66.36
2018-12-07T08:41:50.045Z,66.95
2018-12-07T08:44:16.064Z,67.51
2018-12-07T08:46:42.168Z,66.54
2018-12-07T08:49:08.189Z,66.17
2018-12-07T08:51:34.176Z,66.55
2018-12-07T08:54:00.167Z,65.53
2018-12-07T08:56:26.232Z,65.72
2018-12-07T08:58:52.295Z,66.23
2018-12-07T09:01:18.393Z,66.18
2018-12-07T09:03:44.440Z,65.67
2018-12-07T09:06:10.471Z,66.23
2018-12-07T09:08:36.508Z,65.18
2018-12-07T09:11:02.574Z,66.78
2018-12-07T09:13:28.583Z,66.11
2018-12-07T09:15:54.565Z,66.49
2018-12-07T09:18:20.643Z,65.96
2018-12-07T09:20:53.705Z,68.51
2018-12-07T09:23:14.684Z,66.30
2018-12-07T09:25:40.739Z,67.26
2018-12-07T09:28:06.767Z,66.92
2018-12-07T09:30:32.734Z,67.53
2018-12-07T09:32:58.879Z,65.71
2018-12-07T09:35:24.884Z,66.77
2018-12-07T09:37:50.912Z,67.54
2018-12-07T09:40:16.894Z,66.25
2018-12-07T09:42:42.981Z,66.72
2018-12-07T09:45:08.967Z,66.74
2018-12-07T09:47:35.005Z,66.41
2018-12-07T09:50:00.973Z,63.95
2018-12-07T09:52:26.978Z,65.21
2018-12-07T09:54:58.145Z,67.18
2018-12-07T09:57:24.450Z,66.06
2018-12-07T09:59:50.471Z,64.63
2018-12-07T10:02:16.458Z,64.80
2018-12-07T10:04:42.506Z,66.28
2018-12-07T10:07:08.495Z,65.33
2018-12-07T10:09:34.643Z,65.02
2018-12-07T10:12:00.739Z,66.47
2018-12-07T10:14:26.748Z,66.67
2018-12-07T10:16:52.741Z,65.17
2018-12-07T10:19:18.733Z,65.33
2018-12-07T10:21:44.738Z,65.02
2018-12-07T10:24:11.445Z,64.90
2018-12-07T10:26:37.439Z,64.58
2018-12-07T10:29:03.431Z,64.95
2018-12-07T10:31:29.434Z,64.95
2018-12-07T10:33:55.441Z,64.21
2018-12-07T10:36:21.451Z,65.80
2018-12-07T10:38:47.427Z,64.82
2018-12-07T10:41:13.438Z,66.13
2018-12-07T10:43:39.450Z,64.53
2018-12-07T10:46:05.411Z,65.23
2018-12-07T10:48:31.424Z,66.09
2018-12-07T10:50:57.397Z,64.61
2018-12-07T10:53:23.490Z,64.19
2018-12-07T10:55:49.452Z,65.05
2018-12-07T10:58:15.460Z,64.35
2018-12-07T11:00:47.498Z,65.02
2018-12-07T11:03:19.709Z,64.98
2018-12-07T11:05:51.863Z,64.15
2018-12-07T11:08:24.012Z,64.70
2018-12-07T11:10:55.388Z,65.79
2018-12-07T11:13:27.518Z,65.46
2018-12-07T11:15:59.480Z,65.46
2018-12-07T11:21:33.987Z,64.01
2018-12-07T11:24:06.015Z,66.43
2018-12-07T11:26:38.225Z,65.36
2018-12-07T11:29:10.443Z,66.34
2018-12-07T11:31:40.267Z,66.41
2018-12-07T11:34:06.290Z,64.73
2018-12-07T11:36:32.285Z,65.04
2018-12-07T11:38:58.280Z,65.43
2018-12-07T11:41:24.266Z,65.40
2018-12-07T11:43:50.221Z,65.76
2018-12-07T11:46:16.238Z,66.23
2018-12-07T11:48:42.340Z,65.67
2018-12-07T11:51:08.374Z,66.27
2018-12-07T11:53:34.336Z,66.89
2018-12-07T11:56:00.343Z,67.37
2018-12-07T11:58:26.319Z,67.28
2018-12-07T12:00:52.344Z,66.58
2018-12-07T12:03:18.369Z,66.61
2018-12-07T12:05:44.436Z,67.70
2018-12-07T12:08:10.418Z,66.71
2018-12-07T12:10:36.434Z,66.36
2018-12-07T12:13:02.420Z,66.39
2018-12-07T12:15:28.408Z,66.25
2018-12-07T12:17:54.390Z,66.51
2018-12-07T12:20:20.401Z,66.65
2018-12-07T12:22:46.449Z,67.03
2018-12-07T12:25:12.483Z,66.00
2018-12-07T12:27:38.471Z,66.94
2018-12-07T12:30:05.928Z,79.85
2018-12-07T12:32:32.017Z,65.77
2018-12-07T12:34:57.953Z,67.31
2018-12-07T12:37:23.975Z,66.20
2018-12-07T12:39:49.939Z,67.53
2018-12-07T12:42:15.967Z,66.89
2018-12-07T12:44:41.949Z,65.86
2018-12-07T12:47:08.022Z,66.74
2018-12-07T12:49:34.037Z,66.35
2018-12-07T12:52:00.052Z,65.82
2018-12-07T12:54:26.026Z,66.33
2018-12-07T12:56:52.097Z,65.65
2018-12-07T12:59:18.072Z,65.66
2018-12-07T13:01:44.266Z,65.20
2018-12-07T13:04:10.306Z,65.97
2018-12-07T13:06:36.320Z,64.90
2018-12-07T13:09:04.965Z,63.75
2018-12-07T13:11:31.006Z,64.72
2018-12-07T13:13:56.988Z,64.23
2018-12-07T13:16:22.972Z,63.70
2018-12-07T13:18:48.930Z,64.06
2018-12-07T13:21:15.061Z,64.36
2018-12-07T13:23:41.084Z,64.16
2018-12-07T13:26:07.175Z,64.23
2018-12-07T13:28:33.199Z,63.35
2018-12-07T13:30:59.176Z,63.78
2018-12-07T13:33:25.179Z,62.91
2018-12-07T13:35:51.201Z,61.53
2018-12-07T13:38:17.176Z,63.32
2018-12-07T13:40:43.226Z,60.83
2018-12-07T13:43:09.327Z,62.37
2018-12-07T13:45:35.450Z,62.56
2018-12-07T13:48:01.585Z,62.71
2018-12-07T13:50:33.950Z,62.10
2018-12-07T13:53:00.142Z,61.48
2018-12-07T13:55:26.237Z,62.40
2018-12-07T13:57:52.386Z,62.94
2018-12-07T14:00:18.530Z,63.59
2018-12-07T14:02:44.732Z,63.51
2018-12-07T14:05:10.757Z,61.50
2018-12-07T14:07:36.896Z,61.36
2018-12-07T14:10:04.328Z,61.60
2018-12-07T14:12:30.497Z,61.88
2018-12-07T14:14:56.640Z,61.46
2018-12-07T14:17:22.894Z,62.44
2018-12-07T14:19:49.082Z,61.15
2018-12-07T14:22:15.461Z,61.03
2018-12-07T14:24:41.737Z,63.69
2018-12-07T14:27:08.069Z,61.78
2018-12-07T14:29:34.261Z,61.75
2018-12-07T14:32:00.653Z,60.30
2018-12-07T14:34:26.889Z,61.07
2018-12-07T14:36:53.036Z,61.41
2018-12-07T14:39:19.244Z,60.59
2018-12-07T14:41:45.486Z,60.17
2018-12-07T14:44:11.756Z,59.85
2018-12-07T14:46:37.863Z,60.48
2018-12-07T14:49:04.085Z,61.99
2018-12-07T14:51:30.358Z,60.62
2018-12-07T14:53:56.711Z,61.85
2018-12-07T14:56:22.831Z,61.65
2018-12-07T14:58:49.026Z,62.73
2018-12-07T15:01:15.216Z,60.77
2018-12-07T15:03:41.405Z,61.08
2018-12-07T15:06:07.532Z,62.17
2018-12-07T15:08:33.698Z,62.22
2018-12-07T15:10:59.840Z,61.57
2018-12-07T15:13:26.057Z,61.18
2018-12-07T15:15:52.423Z,61.32
2018-12-07T15:18:18.828Z,61.94
2018-12-07T15:20:45.089Z,62.01
2018-12-07T15:23:11.357Z,60.95
2018-12-07T15:25:37.487Z,61.59
2018-12-07T15:28:03.922Z,61.04
2018-12-07T15:30:30.298Z,62.79
2018-12-07T15:32:56.488Z,61.24
2018-12-07T15:35:22.679Z,63.31
2018-12-07T15:37:48.968Z,61.30
2018-12-07T15:40:15.201Z,62.46
2018-12-07T15:42:42.201Z,61.44
2018-12-07T15:45:08.245Z,61.38
2018-12-07T15:47:34.457Z,60.58
2018-12-07T15:50:00.727Z,60.43
2018-12-07T15:52:26.972Z,59.11
2018-12-07T15:54:53.274Z,61.20
2018-12-07T15:57:19.591Z,60.91
2018-12-07T15:59:45.702Z,62.21
2018-12-07T16:02:11.834Z,60.03
2018-12-07T16:04:37.877Z,60.50
2018-12-07T16:07:03.994Z,60.80
2018-12-07T16:09:30.411Z,61.20
2018-12-07T16:11:56.835Z,60.96
2018-12-07T16:14:23.362Z,60.95
2018-12-07T16:16:49.561Z,60.45
2018-12-07T16:19:15.758Z,59.57
2018-12-07T16:21:41.969Z,60.03
2018-12-07T16:24:08.663Z,60.83
2018-12-07T16:26:34.732Z,59.12
2018-12-07T16:29:00.901Z,61.29
2018-12-07T16:31:27.058Z,61.44
2018-12-07T16:33:53.119Z,61.47
2018-12-07T16:36:19.491Z,60.82
2018-12-07T16:38:45.734Z,59.70
2018-12-07T16:41:12.010Z,61.61
2018-12-07T16:43:38.179Z,60.78
2018-12-07T16:46:04.466Z,61.09
2018-12-07T16:48:30.523Z,61.41
2018-12-07T16:50:56.614Z,61.60
2018-12-07T16:53:22.653Z,61.40
2018-12-07T16:55:48.687Z,60.90
2018-12-07T16:58:14.849Z,60.78
2018-12-07T17:00:41.187Z,60.08
2018-12-07T17:03:08.091Z,60.79
2018-12-07T17:05:34.370Z,60.95
2018-12-07T17:08:00.784Z,60.28
2018-12-07T17:10:26.946Z,59.77
2018-12-07T17:12:53.299Z,60.48
2018-12-07T17:15:19.719Z,59.21
2018-12-07T17:17:45.966Z,59.35
2018-12-07T17:20:11.954Z,60.30
2018-12-07T17:22:38.035Z,60.31
2018-12-07T17:25:04.402Z,59.73
2018-12-07T17:27:30.695Z,60.72
2018-12-07T17:29:56.752Z,61.68
2018-12-07T17:32:23.088Z,61.33
2018-12-07T17:34:49.243Z,60.40
2018-12-07T17:37:15.566Z,62.03
2018-12-07T17:39:41.763Z,61.44
2018-12-07T17:42:07.957Z,60.92
2018-12-07T17:44:34.145Z,61.00
2018-12-07T17:47:00.356Z,61.03
2018-12-07T17:49:26.480Z,59.05
2018-12-07T17:51:52.487Z,60.14
2018-12-07T17:54:18.804Z,61.26
2018-12-07T17:56:44.981Z,61.67
2018-12-07T17:59:11.404Z,60.70
2018-12-07T18:01:37.458Z,60.56
2018-12-07T18:04:03.497Z,60.90
2018-12-07T18:06:30.669Z,60.50
2018-12-07T18:08:57.219Z,60.29
2018-12-07T18:11:23.252Z,60.03
2018-12-07T18:13:49.350Z,58.33
2018-12-07T18:16:15.445Z,59.12
2018-12-07T18:18:41.604Z,59.13
2018-12-07T18:21:07.740Z,59.66
2018-12-07T18:23:33.866Z,59.92
2018-12-07T18:26:00.138Z,59.84
2018-12-07T18:28:26.297Z,57.81
2018-12-07T18:30:52.457Z,57.33
2018-12-07T18:33:18.521Z,58.75
2018-12-07T18:35:44.672Z,57.58
2018-12-07T18:38:10.914Z,58.64
2018-12-07T18:40:37.073Z,57.89
2018-12-07T18:43:03.184Z,58.62
2018-12-07T18:45:29.325Z,59.40
2018-12-07T18:47:55.597Z,59.18
2018-12-07T18:50:21.870Z,59.95
2018-12-07T18:52:48.220Z,59.95
2018-12-07T18:55:14.570Z,59.39
2018-12-07T18:57:40.716Z,60.02
2018-12-07T19:00:07.605Z,59.90
2018-12-07T19:02:34.131Z,59.39
2018-12-07T19:05:00.432Z,59.32
2018-12-07T19:07:27.430Z,59.18
2018-12-07T19:09:53.614Z,59.30
2018-12-07T19:12:19.793Z,60.00
2018-12-07T19:14:45.876Z,58.74
2018-12-07T19:17:12.087Z,58.80
2018-12-07T19:19:38.248Z,58.81
2018-12-07T19:22:04.662Z,59.13
2018-12-07T19:24:30.798Z,59.68
2018-12-07T19:26:57.074Z,60.29
2018-12-07T19:29:23.434Z,60.38
2018-12-07T19:31:49.648Z,59.17
2018-12-07T19:34:16.057Z,59.42
2018-12-07T19:36:42.360Z,60.06
2018-12-07T19:39:08.700Z,59.56
2018-12-07T19:41:34.973Z,60.34
2018-12-07T19:44:01.293Z,60.52
2018-12-07T19:46:27.445Z,60.25
2018-12-07T19:48:53.524Z,59.61
2018-12-07T19:51:19.778Z,59.59
2018-12-07T19:53:45.935Z,59.88
2018-12-07T19:56:12.047Z,58.45
2018-12-07T19:58:38.402Z,59.91
2018-12-07T20:01:04.696Z,58.25
2018-12-07T20:03:30.887Z,58.46
2018-12-07T20:05:56.901Z,59.84
2018-12-07T20:08:23.051Z,59.48
2018-12-07T20:10:49.133Z,57.88
2018-12-07T20:13:15.295Z,58.42
2018-12-07T20:15:41.839Z,58.35
2018-12-07T20:18:08.134Z,57.92
2018-12-07T20:20:34.163Z,58.75
2018-12-07T20:23:00.319Z,59.54
2018-12-07T20:25:26.646Z,59.43
2018-12-07T20:27:52.890Z,58.65
2018-12-07T20:30:19.126Z,59.64
2018-12-07T20:32:45.221Z,59.75
2018-12-07T20:35:11.212Z,59.90
2018-12-07T20:37:37.452Z,57.89
2018-12-07T20:40:03.736Z,58.47
2018-12-07T20:42:29.870Z,58.36
2018-12-07T20:44:56.306Z,61.30
2018-12-07T20:47:24.967Z,60.61
2018-12-07T20:49:50.917Z,61.03
2018-12-07T20:52:17.458Z,63.13
2018-12-07T20:54:43.684Z,62.94
2018-12-07T20:57:09.910Z,64.98
2018-12-07T20:59:36.346Z,68.16
2018-12-07T21:02:02.758Z,68.33
2018-12-07T21:04:31.913Z,67.69
2018-12-07T21:16:48.274Z,67.15
2018-12-07T21:19:14.372Z,67.02
2018-12-07T21:21:40.866Z,66.96
2018-12-07T21:24:07.446Z,67.00
2018-12-07T21:26:33.689Z,67.94
2018-12-07T21:28:59.927Z,67.78
2018-12-07T21:31:26.024Z,67.42
2018-12-07T21:33:56.277Z,66.50
2018-12-07T21:36:34.251Z,66.74
2018-12-07T21:39:00.704Z,68.32
2018-12-07T21:41:26.927Z,68.86
2018-12-07T21:43:53.362Z,68.90
2018-12-07T21:46:19.670Z,67.67
2018-12-07T21:48:45.962Z,67.43
2018-12-07T21:51:16.178Z,67.74
2018-12-07T21:53:42.273Z,67.41
2018-12-07T21:56:08.482Z,66.90
2018-12-07T21:58:34.883Z,65.91
2018-12-07T22:01:01.037Z,66.04
2018-12-07T22:03:27.394Z,64.39
2018-12-07T22:05:53.759Z,64.79
2018-12-07T22:08:20.281Z,65.39
2018-12-07T22:10:46.569Z,64.25
2018-12-07T22:13:12.948Z,64.04
2018-12-07T22:15:39.322Z,64.22
2018-12-07T22:18:05.506Z,64.08
2018-12-07T22:20:31.679Z,62.85
2018-12-07T22:22:57.963Z,63.51
2018-12-07T22:25:24.406Z,65.36
2018-12-07T22:27:50.651Z,64.54
2018-12-07T22:30:18.287Z,63.18
2018-12-07T22:32:44.925Z,62.74
2018-12-07T22:35:11.094Z,63.23
2018-12-07T22:37:37.212Z,61.90
2018-12-07T22:40:05.254Z,62.68
2018-12-07T22:42:31.455Z,62.61
2018-12-07T22:44:57.617Z,61.92
2018-12-07T22:47:23.869Z,61.62
2018-12-07T22:49:49.945Z,62.31
2018-12-07T22:52:15.960Z,61.84
2018-12-07T22:54:41.954Z,62.51
2018-12-07T22:57:07.955Z,61.51
2018-12-07T22:59:33.932Z,61.80
2018-12-07T23:01:59.976Z,61.11
2018-12-07T23:04:26.068Z,61.39
2018-12-07T23:06:52.358Z,61.41
2018-12-07T23:09:18.380Z,60.82
2018-12-07T23:11:44.356Z,60.80
2018-12-07T23:14:10.332Z,61.31
2018-12-07T23:16:36.369Z,59.97
2018-12-07T23:19:02.295Z,60.44
2018-12-07T23:21:28.377Z,60.93
2018-12-07T23:23:54.436Z,59.67
2018-12-07T23:26:20.520Z,59.30
2018-12-07T23:28:46.498Z,59.60
2018-12-07T23:31:12.483Z,58.80
2018-12-07T23:33:38.501Z,59.76
2018-12-07T23:36:04.534Z,59.44
2018-12-07T23:38:30.518Z,58.49
2018-12-07T23:40:56.558Z,59.57
2018-12-07T23:43:22.589Z,58.32
2018-12-07T23:45:48.695Z,60.16
2018-12-07T23:48:14.701Z,60.73
2018-12-07T23:50:40.717Z,60.32
2018-12-07T23:53:06.717Z,60.63
2018-12-07T23:55:32.925Z,60.03
2018-12-07T23:57:58.986Z,59.22
